Terminal Aerodrome Forecast
Issued by NWS

Home | Current Version | Previous Version | Text Only | Print | Product List | Glossary On
Versions: 1 2 3 4 5 6 7 8 9 10 11 12 13 14 15
000
FTUS41 KBGM 272300 CCA
TAFRME
TAF COR
KRME 272340Z 2800/2824 11006KT P6SM BKN045
     FM280500 25004KT P6SM -SHRA OVC030
     FM280800 28007KT P6SM -SHRA OVC015
      TEMPO 2809/2812 4SM -SHRA OVC009
     FM281400 29012G18KT P6SM BKN020
     FM281900 30011KT P6SM SCT025 BKN180=

USA.gov is the U.S. government's official web portal to all federal, state and local government web resources and services.